createdAt,value
2023-03-15T00:01:38.747Z,2.73
2023-03-15T00:04:06.796Z,2.85
2023-03-15T00:06:35.554Z,2.61
2023-03-15T00:09:03.980Z,2.90
2023-03-15T00:11:31.944Z,2.90
2023-03-15T00:14:01.845Z,2.77
2023-03-15T00:16:32.792Z,2.68
2023-03-15T00:19:00.616Z,2.58
2023-03-15T00:21:29.764Z,2.41
2023-03-15T00:23:57.707Z,2.15
2023-03-15T00:26:25.494Z,2.15
2023-03-15T00:28:53.128Z,1.90
2023-03-15T00:31:23.314Z,1.78
2023-03-15T00:33:54.692Z,1.76
2023-03-15T00:36:25.128Z,1.74
2023-03-15T00:38:54.667Z,1.66
2023-03-15T00:41:23.337Z,1.56
2023-03-15T00:43:52.008Z,1.50
2023-03-15T00:46:20.739Z,1.56
2023-03-15T00:48:50.029Z,1.56
2023-03-15T00:51:21.275Z,1.49
2023-03-15T00:53:50.566Z,1.48
2023-03-15T00:56:20.541Z,1.48
2023-03-15T00:58:48.355Z,1.33
2023-03-15T01:01:19.219Z,1.34
2023-03-15T01:03:46.952Z,1.36
2023-03-15T01:06:16.665Z,1.34
2023-03-15T01:08:46.659Z,1.37
2023-03-15T01:11:16.586Z,1.29
2023-03-15T01:13:45.333Z,1.27
2023-03-15T01:16:14.752Z,1.17
2023-03-15T01:18:45.152Z,1.09
2023-03-15T01:21:14.876Z,1.09
2023-03-15T01:23:43.063Z,0.63
2023-03-15T01:26:14.191Z,0.97
2023-03-15T01:28:42.133Z,1.12
2023-03-15T01:31:18.060Z,1.02
2023-03-15T01:33:45.806Z,1.01
2023-03-15T01:36:14.221Z,0.70
2023-03-15T01:38:42.988Z,0.81
2023-03-15T01:41:13.833Z,0.83
2023-03-15T01:43:47.024Z,0.44
2023-03-15T01:46:24.736Z,0.71
2023-03-15T01:49:00.687Z,0.69
2023-03-15T01:51:38.469Z,0.46
2023-03-15T01:54:10.185Z,0.66
2023-03-15T01:56:42.869Z,0.63
2023-03-15T01:59:14.084Z,0.39
2023-03-15T02:01:45.538Z,0.67
2023-03-15T02:04:17.657Z,0.63
2023-03-15T02:06:48.908Z,0.62
2023-03-15T02:09:19.234Z,0.58
2023-03-15T02:11:49.698Z,0.47
2023-03-15T02:14:19.388Z,0.38
2023-03-15T02:16:47.066Z,0.62
2023-03-15T02:19:28.914Z,0.73
2023-03-15T02:22:03.718Z,0.54
2023-03-15T02:24:38.712Z,0.50
2023-03-15T02:27:08.994Z,0.31
2023-03-15T02:29:38.116Z,0.25
2023-03-15T02:32:06.141Z,0.29
2023-03-15T02:34:33.896Z,0.26
2023-03-15T02:37:02.240Z,0.06
2023-03-15T02:39:29.896Z,0.14
2023-03-15T02:41:59.683Z,0.12
2023-03-15T02:44:32.809Z,0.01
2023-03-15T02:47:05.335Z,0.05
2023-03-15T02:49:38.709Z,0.09
2023-03-15T02:52:08.455Z,0.13
2023-03-15T02:54:36.591Z,-0.04
2023-03-15T02:57:04.697Z,0.11
2023-03-15T02:59:33.051Z,0.22
2023-03-15T03:02:02.886Z,0.22
2023-03-15T03:04:30.629Z,0.08
2023-03-15T03:06:58.510Z,0.13
2023-03-15T03:09:33.704Z,0.15
2023-03-15T03:12:01.531Z,0.16
2023-03-15T03:14:31.201Z,0.20
2023-03-15T03:16:59.371Z,0.18
2023-03-15T03:19:28.477Z,0.21
2023-03-15T03:21:57.417Z,0.13
2023-03-15T03:24:25.778Z,0.09
2023-03-15T03:26:57.765Z,0.17
2023-03-15T03:29:30.028Z,0.47
2023-03-15T03:32:01.402Z,0.46
2023-03-15T03:34:31.348Z,0.56
2023-03-15T03:36:59.928Z,0.50
2023-03-15T03:39:44.645Z,0.86
2023-03-15T03:42:12.709Z,0.90
2023-03-15T03:44:40.366Z,0.73
2023-03-15T03:47:08.842Z,0.88
2023-03-15T03:49:37.951Z,0.96
2023-03-15T03:52:06.150Z,0.92
2023-03-15T03:54:34.164Z,0.95
2023-03-15T03:57:01.803Z,1.00
2023-03-15T03:59:33.642Z,1.05
2023-03-15T04:05:02.348Z,0.93
2023-03-15T04:07:30.089Z,1.00
2023-03-15T04:09:57.829Z,0.94
2023-03-15T04:12:25.543Z,0.93
2023-03-15T04:14:55.712Z,0.88
2023-03-15T04:17:25.893Z,0.92
2023-03-15T04:19:53.653Z,0.88
2023-03-15T04:22:28.253Z,0.98
2023-03-15T04:25:04.756Z,0.96
2023-03-15T04:28:02.681Z,0.92
2023-03-15T04:30:58.603Z,0.99
2023-03-15T04:33:49.319Z,0.98
2023-03-15T04:36:35.800Z,0.95
2023-03-15T04:39:07.170Z,0.87
2023-03-15T04:41:47.775Z,0.88
2023-03-15T04:44:44.923Z,0.84
2023-03-15T04:47:45.030Z,0.93
2023-03-15T04:50:40.721Z,0.97
2023-03-15T04:53:16.690Z,0.79
2023-03-15T04:56:08.906Z,0.81
2023-03-15T04:58:55.444Z,0.95
2023-03-15T05:01:46.064Z,0.98
2023-03-15T05:04:38.465Z,1.05
2023-03-15T05:07:25.376Z,1.13
2023-03-15T05:10:23.826Z,1.09
2023-03-15T05:13:13.050Z,1.29
2023-03-15T05:16:01.422Z,1.30
2023-03-15T05:18:47.709Z,1.38
2023-03-15T05:21:32.634Z,1.45
2023-03-15T05:24:14.383Z,1.37
2023-03-15T05:27:11.968Z,1.45
2023-03-15T05:29:53.500Z,1.49
2023-03-15T05:32:39.497Z,1.54
2023-03-15T05:35:22.175Z,1.58
2023-03-15T05:38:28.085Z,1.69
2023-03-15T05:41:18.118Z,1.78
2023-03-15T05:43:54.588Z,1.61
2023-03-15T05:46:35.524Z,1.77
2023-03-15T05:49:25.675Z,1.64
2023-03-15T05:52:12.040Z,1.75
2023-03-15T05:54:50.730Z,1.72
2023-03-15T05:57:53.802Z,1.65
2023-03-15T06:00:40.463Z,1.69
2023-03-15T06:03:20.216Z,1.79
2023-03-15T06:06:05.031Z,1.72
2023-03-15T06:08:37.977Z,1.72
2023-03-15T06:11:06.665Z,1.77
2023-03-15T06:13:34.787Z,1.76
2023-03-15T06:16:08.065Z,1.83
2023-03-15T06:18:40.345Z,1.70
2023-03-15T06:21:08.145Z,1.83
2023-03-15T06:23:36.870Z,1.77
2023-03-15T06:26:05.440Z,1.72
2023-03-15T06:28:33.375Z,1.89
2023-03-15T06:31:07.765Z,2.00
2023-03-15T06:33:41.599Z,1.51
2023-03-15T06:36:12.592Z,1.94
2023-03-15T06:38:41.725Z,1.86
2023-03-15T06:41:09.418Z,1.89
2023-03-15T06:43:38.163Z,1.72
2023-03-15T06:46:06.917Z,1.77
2023-03-15T06:48:34.670Z,1.75
2023-03-15T06:51:05.801Z,1.89
2023-03-15T06:53:33.655Z,1.85
2023-03-15T06:56:01.404Z,1.61
2023-03-15T06:58:28.996Z,1.88
2023-03-15T07:00:56.796Z,1.97
2023-03-15T07:03:24.490Z,2.02
2023-03-15T07:05:53.926Z,1.88
2023-03-15T07:08:24.629Z,1.81
2023-03-15T07:10:53.050Z,1.83
2023-03-15T07:13:20.994Z,1.95
2023-03-15T07:15:53.028Z,1.99
2023-03-15T07:18:20.780Z,2.02
2023-03-15T07:20:48.409Z,1.97
2023-03-15T07:23:16.074Z,1.96
2023-03-15T07:25:54.848Z,1.95
2023-03-15T07:28:24.921Z,1.98
2023-03-15T07:30:57.262Z,1.80
2023-03-15T07:33:26.538Z,2.07
2023-03-15T07:35:54.898Z,2.07
2023-03-15T07:38:23.201Z,1.98
2023-03-15T07:40:52.289Z,1.78
2023-03-15T07:43:20.537Z,1.98
2023-03-15T07:45:51.842Z,1.95
2023-03-15T07:48:19.492Z,1.94
2023-03-15T07:50:47.993Z,2.12
2023-03-15T07:53:15.820Z,2.08
2023-03-15T07:55:43.570Z,2.18
2023-03-15T07:58:13.385Z,2.01
2023-03-15T08:00:41.067Z,2.10
2023-03-15T08:03:09.214Z,2.42
2023-03-15T08:05:37.365Z,2.26
2023-03-15T08:08:05.541Z,2.06
2023-03-15T08:10:33.292Z,1.94
2023-03-15T08:13:00.929Z,1.70
2023-03-15T08:15:29.908Z,1.84
2023-03-15T08:17:59.615Z,1.87
2023-03-15T08:20:29.685Z,2.07
2023-03-15T08:22:57.735Z,2.22
2023-03-15T08:25:26.938Z,2.51
2023-03-15T08:27:54.569Z,2.14
2023-03-15T08:30:22.620Z,2.05
2023-03-15T08:32:52.567Z,2.04
2023-03-15T08:35:22.434Z,1.77
2023-03-15T08:37:52.463Z,1.89
2023-03-15T08:40:24.738Z,1.86
2023-03-15T08:42:53.032Z,1.99
2023-03-15T08:45:21.637Z,2.00
2023-03-15T08:47:50.614Z,2.15
2023-03-15T08:50:19.111Z,1.83
2023-03-15T08:52:46.782Z,1.88
2023-03-15T08:55:14.674Z,1.79
2023-03-15T08:57:42.945Z,1.83
2023-03-15T09:00:16.143Z,1.86
2023-03-15T09:02:43.960Z,1.59
2023-03-15T09:05:12.929Z,1.94
2023-03-15T09:07:42.697Z,1.99
2023-03-15T09:10:13.187Z,1.82
2023-03-15T09:12:40.893Z,1.91
2023-03-15T09:15:09.800Z,1.85
2023-03-15T09:17:37.465Z,1.90
2023-03-15T09:20:11.270Z,2.00
2023-03-15T09:22:40.534Z,2.10
2023-03-15T09:25:09.698Z,2.04
2023-03-15T09:27:37.907Z,2.21
2023-03-15T09:30:06.458Z,2.18
2023-03-15T09:32:36.294Z,2.10
2023-03-15T09:35:05.308Z,2.18
2023-03-15T09:37:33.431Z,2.09
2023-03-15T09:40:04.489Z,1.98
2023-03-15T09:42:42.814Z,1.98
2023-03-15T09:45:19.398Z,1.89
2023-03-15T09:47:56.817Z,1.97
2023-03-15T09:50:30.592Z,1.99
2023-03-15T09:53:03.459Z,1.98
2023-03-15T09:55:32.482Z,2.10
2023-03-15T09:58:01.986Z,1.92
2023-03-15T10:00:38.628Z,1.87
2023-03-15T10:03:09.826Z,1.44
2023-03-15T10:05:42.264Z,1.88
2023-03-15T10:08:12.482Z,1.89
2023-03-15T10:10:50.411Z,1.67
2023-03-15T10:13:29.493Z,1.73
2023-03-15T10:16:03.636Z,1.81
2023-03-15T10:18:49.802Z,1.86
2023-03-15T10:21:30.590Z,1.96
2023-03-15T10:23:59.474Z,1.77
2023-03-15T10:26:34.053Z,1.93
2023-03-15T10:29:04.972Z,2.05
2023-03-15T10:31:44.427Z,2.03
2023-03-15T10:34:14.060Z,2.26
2023-03-15T10:36:46.432Z,2.33
2023-03-15T10:39:14.238Z,2.54
2023-03-15T10:41:44.941Z,2.70
2023-03-15T10:44:15.187Z,2.74
2023-03-15T10:46:43.018Z,2.47
2023-03-15T10:49:13.250Z,2.36
2023-03-15T10:51:43.572Z,2.72
2023-03-15T10:54:17.587Z,2.69
2023-03-15T10:56:48.728Z,2.84
2023-03-15T10:59:18.447Z,2.92
2023-03-15T11:01:49.415Z,3.07
2023-03-15T11:04:21.333Z,3.19
2023-03-15T11:06:51.393Z,3.19
2023-03-15T11:09:22.190Z,3.55
2023-03-15T11:11:54.161Z,3.75
2023-03-15T11:14:21.799Z,3.93
2023-03-15T11:16:51.982Z,3.84
2023-03-15T11:19:22.973Z,4.23
2023-03-15T11:21:52.447Z,4.31
2023-03-15T11:24:26.667Z,4.34
2023-03-15T11:27:01.918Z,4.46
2023-03-15T11:29:32.592Z,4.50
2023-03-15T11:32:02.345Z,4.79
2023-03-15T11:34:41.313Z,4.72
2023-03-15T11:37:16.808Z,4.94
2023-03-15T11:39:53.734Z,5.17
2023-03-15T11:42:31.405Z,5.53
2023-03-15T11:45:02.828Z,5.13
2023-03-15T11:47:40.551Z,5.41
2023-03-15T11:50:12.710Z,6.00
2023-03-15T11:52:41.233Z,6.41
2023-03-15T11:55:18.780Z,6.01
2023-03-15T11:57:49.307Z,6.03
2023-03-15T12:00:50.719Z,5.76
2023-03-15T12:03:34.256Z,5.57
2023-03-15T12:06:11.599Z,5.49
2023-03-15T12:08:45.508Z,5.30
2023-03-15T12:11:13.943Z,5.17
2023-03-15T12:14:04.104Z,5.34
2023-03-15T12:16:34.695Z,5.51
2023-03-15T12:19:10.100Z,5.57
2023-03-15T12:21:42.454Z,5.61
2023-03-15T12:24:18.328Z,5.57
2023-03-15T12:26:47.629Z,5.64
2023-03-15T12:29:21.596Z,5.44
2023-03-15T12:31:55.688Z,5.37
2023-03-15T12:34:27.379Z,5.58
2023-03-15T12:36:59.258Z,5.75
2023-03-15T12:39:39.883Z,5.60
2023-03-15T12:42:13.818Z,5.95
2023-03-15T12:44:44.284Z,6.20
2023-03-15T12:47:12.786Z,6.20
2023-03-15T12:49:43.611Z,6.19
2023-03-15T12:52:35.753Z,6.35
2023-03-15T12:55:12.845Z,6.27
2023-03-15T12:57:48.520Z,6.16
2023-03-15T13:00:21.795Z,6.18
2023-03-15T13:02:51.677Z,6.43
2023-03-15T13:05:24.442Z,6.78
2023-03-15T13:07:58.393Z,6.21
2023-03-15T13:10:39.436Z,5.85
2023-03-15T13:13:44.968Z,5.79
2023-03-15T13:16:26.661Z,5.74
2023-03-15T13:19:05.246Z,5.60
2023-03-15T13:21:35.441Z,5.59
2023-03-15T13:24:04.528Z,5.54
2023-03-15T13:26:46.116Z,5.72
2023-03-15T13:29:17.535Z,5.75
2023-03-15T13:31:47.655Z,5.81
2023-03-15T13:34:19.562Z,5.77
2023-03-15T13:36:49.195Z,5.79
2023-03-15T13:39:20.561Z,5.81
2023-03-15T13:41:48.315Z,5.87
2023-03-15T13:44:20.696Z,6.46
2023-03-15T13:46:52.878Z,6.85
2023-03-15T13:49:21.649Z,6.77
2023-03-15T13:51:50.680Z,7.12
2023-03-15T13:54:21.998Z,7.03
2023-03-15T13:57:03.521Z,6.89
2023-03-15T13:59:35.778Z,6.41
2023-03-15T14:02:06.940Z,6.20
2023-03-15T14:04:38.475Z,6.15
2023-03-15T14:07:27.297Z,6.00
2023-03-15T14:10:24.830Z,5.59
2023-03-15T14:12:53.646Z,5.48
2023-03-15T14:15:24.822Z,5.42
2023-03-15T14:18:00.781Z,5.35
2023-03-15T14:20:33.497Z,5.26
2023-03-15T14:23:02.916Z,5.32
2023-03-15T14:25:34.803Z,5.32
2023-03-15T14:28:03.377Z,5.28
2023-03-15T14:30:34.088Z,5.28
2023-03-15T14:33:07.433Z,5.29
2023-03-15T14:35:44.094Z,5.46
2023-03-15T14:38:18.957Z,5.90
2023-03-15T14:40:46.825Z,6.36
2023-03-15T14:43:14.945Z,6.54
2023-03-15T14:45:44.717Z,6.55
2023-03-15T14:48:16.365Z,6.18
2023-03-15T14:50:46.658Z,6.18
2023-03-15T14:53:18.581Z,5.97
2023-03-15T14:55:46.341Z,6.03
2023-03-15T14:58:17.202Z,6.11
2023-03-15T15:00:46.987Z,6.07
2023-03-15T15:03:19.778Z,5.90
2023-03-15T15:05:47.701Z,5.95
2023-03-15T15:08:19.177Z,5.91
2023-03-15T15:10:48.712Z,5.87
2023-03-15T15:13:20.389Z,5.92
2023-03-15T15:15:55.761Z,5.68
2023-03-15T15:18:27.789Z,6.09
2023-03-15T15:20:57.375Z,6.04
2023-03-15T15:23:28.219Z,6.81
2023-03-15T15:25:58.837Z,7.26
2023-03-15T15:28:35.210Z,7.38
2023-03-15T15:31:05.894Z,7.29
2023-03-15T15:33:35.159Z,7.09
2023-03-15T15:36:04.353Z,7.01
2023-03-15T15:38:38.538Z,6.76
2023-03-15T15:41:07.636Z,6.63
2023-03-15T15:43:35.220Z,6.35
2023-03-15T15:46:03.370Z,5.87
2023-03-15T15:48:31.133Z,6.30
2023-03-15T15:51:00.084Z,6.40
2023-03-15T15:53:32.659Z,6.38
2023-03-15T15:56:00.808Z,6.46
2023-03-15T15:58:28.468Z,6.45
2023-03-15T16:00:56.073Z,6.42
2023-03-15T16:03:23.963Z,6.34
2023-03-15T16:05:52.851Z,6.38
2023-03-15T16:08:23.952Z,6.16
2023-03-15T16:10:52.000Z,6.10
2023-03-15T16:13:19.624Z,6.19
2023-03-15T16:15:47.263Z,6.12
2023-03-15T16:18:15.433Z,6.10
2023-03-15T16:20:43.802Z,5.65
2023-03-15T16:23:18.937Z,6.11
2023-03-15T16:25:50.760Z,6.09
2023-03-15T16:28:18.523Z,6.02
2023-03-15T16:30:47.110Z,5.85
2023-03-15T16:33:17.011Z,5.89
2023-03-15T16:35:45.520Z,5.91
2023-03-15T16:38:16.828Z,5.86
2023-03-15T16:40:46.664Z,5.81
2023-03-15T16:43:15.723Z,5.77
2023-03-15T16:45:43.625Z,5.69
2023-03-15T16:48:11.946Z,5.64
2023-03-15T16:50:40.826Z,5.58
2023-03-15T16:53:11.067Z,5.46
2023-03-15T16:55:39.544Z,5.32
2023-03-15T16:58:17.368Z,5.21
2023-03-15T17:00:47.018Z,5.12
2023-03-15T17:03:16.434Z,4.85
2023-03-15T17:05:46.653Z,4.79
2023-03-15T17:08:18.338Z,4.73
2023-03-15T17:10:46.385Z,4.56
2023-03-15T17:13:18.065Z,4.46
2023-03-15T17:15:46.008Z,4.30
2023-03-15T17:18:17.307Z,3.59
2023-03-15T17:20:46.210Z,3.90
2023-03-15T17:23:14.039Z,3.59
2023-03-15T17:25:42.182Z,3.50
2023-03-15T17:28:09.848Z,3.45
2023-03-15T17:30:39.053Z,3.18
2023-03-15T17:33:07.112Z,3.01
2023-03-15T17:35:36.793Z,2.97
2023-03-15T17:38:06.215Z,2.90
2023-03-15T17:40:36.331Z,2.91
2023-03-15T17:43:05.136Z,2.79
2023-03-15T17:45:34.246Z,2.23
2023-03-15T17:48:04.228Z,2.64
2023-03-15T17:50:33.451Z,2.46
2023-03-15T17:53:03.112Z,2.25
2023-03-15T17:55:34.710Z,2.15
2023-03-15T17:58:02.667Z,2.13
2023-03-15T18:00:32.555Z,2.13
2023-03-15T18:03:01.294Z,2.09
2023-03-15T18:05:30.789Z,1.97
2023-03-15T18:07:59.833Z,1.96
2023-03-15T18:10:32.564Z,1.94
2023-03-15T18:13:00.234Z,1.96
2023-03-15T18:15:27.836Z,1.85
2023-03-15T18:17:55.472Z,1.75
2023-03-15T18:20:24.078Z,1.60
2023-03-15T18:22:53.194Z,1.54
2023-03-15T18:25:23.252Z,1.58
2023-03-15T18:27:51.444Z,1.59
2023-03-15T18:30:21.137Z,1.50
2023-03-15T18:32:49.381Z,1.48
2023-03-15T18:35:20.160Z,1.44
2023-03-15T18:37:48.043Z,1.44
2023-03-15T18:40:19.428Z,1.48
2023-03-15T18:42:47.128Z,1.57
2023-03-15T18:45:18.941Z,1.42
2023-03-15T18:47:47.032Z,1.38
2023-03-15T18:50:15.288Z,1.28
2023-03-15T18:52:43.552Z,1.30
2023-03-15T18:55:13.309Z,1.28
2023-03-15T18:57:42.952Z,1.34
2023-03-15T19:00:13.168Z,1.30
2023-03-15T19:02:42.021Z,1.39
2023-03-15T19:05:11.627Z,1.33
2023-03-15T19:07:39.848Z,1.31
2023-03-15T19:10:10.543Z,1.24
2023-03-15T19:12:39.770Z,1.20
2023-03-15T19:15:11.711Z,1.16
2023-03-15T19:17:39.911Z,1.25
2023-03-15T19:20:11.860Z,1.25
2023-03-15T19:22:39.888Z,1.14
2023-03-15T19:25:08.777Z,1.18
2023-03-15T19:27:36.506Z,1.34
2023-03-15T19:30:07.901Z,1.26
2023-03-15T19:32:38.033Z,1.31
2023-03-15T19:35:06.644Z,1.30
2023-03-15T19:37:34.344Z,1.33
2023-03-15T19:40:02.757Z,1.34
2023-03-15T19:42:30.413Z,1.32
2023-03-15T19:44:58.034Z,1.25
2023-03-15T19:47:25.699Z,1.20
2023-03-15T19:49:54.865Z,1.15
2023-03-15T19:52:22.581Z,1.06
2023-03-15T19:54:51.685Z,1.16
2023-03-15T19:57:19.525Z,1.18
2023-03-15T19:59:47.293Z,1.10
2023-03-15T20:02:15.246Z,0.98
2023-03-15T20:04:42.977Z,1.06
2023-03-15T20:07:12.369Z,1.08
2023-03-15T20:09:41.320Z,1.02
2023-03-15T20:12:10.875Z,1.06
2023-03-15T20:14:39.793Z,0.88
2023-03-15T20:17:07.592Z,0.95
2023-03-15T20:19:35.933Z,1.09
2023-03-15T20:22:03.542Z,1.28
2023-03-15T20:24:32.681Z,1.40
2023-03-15T20:27:00.418Z,1.54
2023-03-15T20:29:28.061Z,1.53
2023-03-15T20:31:55.728Z,1.53
2023-03-15T20:34:23.440Z,1.41
2023-03-15T20:36:52.568Z,1.30
2023-03-15T20:39:23.932Z,1.13
2023-03-15T20:41:53.506Z,0.97
2023-03-15T20:44:21.490Z,0.86
2023-03-15T20:46:52.510Z,0.95
2023-03-15T20:49:20.220Z,0.93
2023-03-15T20:51:48.246Z,0.85
2023-03-15T20:54:15.898Z,0.80
2023-03-15T20:56:43.592Z,0.80
2023-03-15T20:59:13.441Z,0.72
2023-03-15T21:01:41.179Z,0.67
2023-03-15T21:04:08.795Z,0.65
2023-03-15T21:06:36.510Z,0.69
2023-03-15T21:09:05.000Z,0.72
2023-03-15T21:11:32.725Z,0.76
2023-03-15T21:14:00.882Z,0.78
2023-03-15T21:16:29.982Z,0.77
2023-03-15T21:18:57.694Z,0.80
2023-03-15T21:21:25.370Z,0.75
2023-03-15T21:23:54.178Z,0.70
2023-03-15T21:26:22.307Z,0.64
2023-03-15T21:28:50.570Z,0.56
2023-03-15T21:31:18.360Z,0.59
2023-03-15T21:33:49.218Z,0.64
2023-03-15T21:36:18.650Z,0.64
2023-03-15T21:38:46.315Z,0.58
2023-03-15T21:41:14.186Z,0.62
2023-03-15T21:43:41.899Z,0.66
2023-03-15T21:46:12.892Z,0.63
2023-03-15T21:48:41.837Z,0.53
2023-03-15T21:51:14.745Z,0.74
2023-03-15T21:53:42.871Z,0.67
2023-03-15T21:56:10.526Z,0.08
2023-03-15T21:58:38.220Z,0.83
2023-03-15T22:01:08.993Z,0.75
2023-03-15T22:03:37.525Z,0.79
2023-03-15T22:06:05.389Z,0.81
2023-03-15T22:08:34.792Z,0.84
2023-03-15T22:11:02.472Z,0.77
2023-03-15T22:13:30.297Z,0.84
2023-03-15T22:15:58.320Z,0.57
2023-03-15T22:18:28.456Z,0.74
2023-03-15T22:20:57.328Z,0.71
2023-03-15T22:23:25.199Z,0.84
2023-03-15T22:25:55.386Z,0.95
2023-03-15T22:28:25.016Z,0.99
2023-03-15T22:30:53.038Z,0.98
2023-03-15T22:33:22.466Z,0.86
2023-03-15T22:36:00.037Z,0.77
2023-03-15T22:38:27.821Z,0.75
2023-03-15T22:41:05.232Z,0.71
2023-03-15T22:43:32.972Z,0.72
2023-03-15T22:46:01.045Z,0.67
2023-03-15T22:48:29.361Z,0.68
2023-03-15T22:50:58.917Z,0.67
2023-03-15T22:53:26.847Z,0.71
2023-03-15T22:55:54.596Z,0.65
2023-03-15T22:58:24.257Z,0.64
2023-03-15T23:00:52.287Z,0.71
2023-03-15T23:03:20.669Z,0.77
2023-03-15T23:05:48.393Z,0.68
2023-03-15T23:08:16.281Z,0.68
2023-03-15T23:10:44.037Z,0.65
2023-03-15T23:13:12.528Z,0.67
2023-03-15T23:15:41.711Z,0.66
2023-03-15T23:18:09.489Z,0.63
2023-03-15T23:20:38.408Z,0.64
2023-03-15T23:23:07.322Z,0.70
2023-03-15T23:25:39.154Z,0.74
2023-03-15T23:28:07.752Z,0.71
2023-03-15T23:30:36.573Z,0.77
2023-03-15T23:33:07.769Z,0.81
2023-03-15T23:35:35.457Z,0.70
2023-03-15T23:38:03.149Z,0.70
2023-03-15T23:40:31.285Z,0.65
2023-03-15T23:42:59.593Z,0.73
2023-03-15T23:45:29.824Z,0.65
2023-03-15T23:47:57.752Z,0.73
2023-03-15T23:50:27.490Z,0.72
2023-03-15T23:52:56.831Z,0.78
2023-03-15T23:55:25.180Z,0.47
2023-03-15T23:57:53.068Z,0.72
